Time;durP1;ratioP1;P1;durP2;ratioP2;P2;SDS_P1;SDS_P2;PMS_P1;PMS_P2;Temp;Humidity;BMP_temperature;BMP_pressure;BME280_temperature;BME280_humidity;BME280_pressure;Samples;Min_cycle;Max_cycle;Signal;HPM_P1;HPM_P2
2022/08/14 00:02:03;;;;;;;17.02;12.02;;;;;;;;;;4974609;28;20069;-76
2022/08/14 00:04:33;;;;;;;15.60;12.52;;;;;;;;;;4965358;28;20027;-76
2022/08/14 00:06:59;;;;;;;19.15;12.55;;;;;;;;;;4962237;28;20040;-77
2022/08/14 00:09:24;;;;;;;17.33;12.35;;;;;;;;;;4956882;28;20438;-76
2022/08/14 00:11:50;;;;;;;17.42;12.57;;;;;;;;;;4962343;28;20035;-77
2022/08/14 00:14:16;;;;;;;16.60;11.98;;;;;;;;;;4957423;28;20506;-76
2022/08/14 00:16:42;;;;;;;16.23;12.23;;;;;;;;;;4960250;28;20585;-77
2022/08/14 00:19:08;;;;;;;15.77;11.35;;;;;;;;;;4972264;28;20101;-76
2022/08/14 00:21:34;;;;;;;18.63;11.88;;;;;;;;;;4956299;28;20063;-77
2022/08/14 00:23:59;;;;;;;17.65;12.05;;;;;;;;;;4961937;28;20190;-77
2022/08/14 00:26:25;;;;;;;14.00;11.48;;;;;;;;;;4972095;28;20480;-76
2022/08/14 00:28:52;;;;;;;16.42;11.80;;;;;;;;;;4982633;28;20169;-77
2022/08/14 00:31:18;;;;;;;17.05;11.93;;;;;;;;;;4968082;28;20041;-76
2022/08/14 00:33:44;;;;;;;14.93;11.77;;;;;;;;;;4967719;28;20062;-77
2022/08/14 00:36:10;;;;;;;19.10;12.05;;;;;;;;;;4975955;28;20109;-76
2022/08/14 00:38:36;;;;;;;21.98;12.57;;;;;;;;;;4980223;28;20125;-76
2022/08/14 00:41:07;;;;;;;18.50;12.30;;;;;;;;;;4961072;28;20034;-76
2022/08/14 00:43:36;;;;;;;18.85;12.63;;;;;;;;;;4956674;28;20166;-76
2022/08/14 00:46:07;;;;;;;17.80;12.70;;;;;;;;;;4976431;28;20510;-74
2022/08/14 00:48:33;;;;;;;18.88;13.27;;;;;;;;;;4960990;28;20065;-76
2022/08/14 00:50:59;;;;;;;20.77;12.07;;;;;;;;;;4967638;28;20499;-77
2022/08/14 00:53:24;;;;;;;18.38;12.52;;;;;;;;;;4950024;28;20035;-75
2022/08/14 00:55:54;;;;;;;18.48;12.18;;;;;;;;;;4963167;28;20035;-76
2022/08/14 00:58:29;;;;;;;17.00;12.32;;;;;;;;;;4964708;28;20038;-76
2022/08/14 01:00:56;;;;;;;19.52;12.63;;;;;;;;;;4955115;28;20510;-76
2022/08/14 01:03:21;;;;;;;18.90;12.88;;;;;;;;;;4975678;28;20042;-75
2022/08/14 01:05:50;;;;;;;18.25;12.88;;;;;;;;;;4969387;28;20022;-76
2022/08/14 01:08:22;;;;;;;21.30;12.90;;;;;;;;;;4960294;28;20173;-75
2022/08/14 01:10:49;;;;;;;16.80;12.05;;;;;;;;;;4969126;28;20050;-76
2022/08/14 01:13:19;;;;;;;16.63;12.23;;;;;;;;;;4973718;28;20426;-76
2022/08/14 01:15:47;;;;;;;16.83;11.75;;;;;;;;;;4962776;28;20098;-76
2022/08/14 01:21:08;;;;;;;20.05;13.20;;;;;;;;;;4946913;28;20579;-76
2022/08/14 01:23:37;;;;;;;15.18;11.82;;;;;;;;;;4953033;28;20027;-77
2022/08/14 01:26:03;;;;;;;19.05;13.65;;;;;;;;;;4976655;28;20043;-77
2022/08/14 01:28:33;;;;;;;19.25;13.32;;;;;;;;;;4970596;28;20145;-76
2022/08/14 01:30:58;;;;;;;17.70;12.63;;;;;;;;;;4960069;28;20037;-77
2022/08/14 01:33:29;;;;;;;18.73;13.18;;;;;;;;;;4969837;28;20026;-76
2022/08/14 01:35:59;;;;;;;20.13;13.65;;;;;;;;;;4948794;28;20050;-75
2022/08/14 01:38:33;;;;;;;18.08;13.38;;;;;;;;;;4959111;28;20041;-76
2022/08/14 01:41:00;;;;;;;18.38;12.10;;;;;;;;;;4977585;28;20102;-75
2022/08/14 01:43:29;;;;;;;20.20;13.43;;;;;;;;;;4957723;28;20513;-75
2022/08/14 01:45:57;;;;;;;16.20;12.68;;;;;;;;;;4960513;28;20395;-75
2022/08/14 01:48:23;;;;;;;15.73;11.82;;;;;;;;;;4972903;28;20055;-75
2022/08/14 01:50:49;;;;;;;20.63;14.23;;;;;;;;;;4976144;28;20035;-76
2022/08/14 01:53:16;;;;;;;17.38;12.98;;;;;;;;;;4960675;28;20094;-76
2022/08/14 01:55:42;;;;;;;17.13;12.95;;;;;;;;;;4976219;28;20114;-76
2022/08/14 01:58:14;;;;;;;18.15;12.93;;;;;;;;;;4983308;28;20117;-76
2022/08/14 02:00:40;;;;;;;19.08;13.65;;;;;;;;;;4959312;28;20047;-76
2022/08/14 02:03:06;;;;;;;17.17;12.80;;;;;;;;;;4976836;28;20026;-76
2022/08/14 02:05:32;;;;;;;17.45;11.88;;;;;;;;;;4961242;28;20031;-76
2022/08/14 02:07:59;;;;;;;16.58;12.82;;;;;;;;;;4960851;28;20026;-75
2022/08/14 02:10:27;;;;;;;17.08;12.50;;;;;;;;;;4969646;28;20486;-76
2022/08/14 02:12:55;;;;;;;22.45;12.80;;;;;;;;;;4975300;28;20078;-75
2022/08/14 02:15:22;;;;;;;18.40;14.23;;;;;;;;;;4962581;28;20039;-75
2022/08/14 02:17:49;;;;;;;20.02;13.95;;;;;;;;;;4958384;28;20098;-76
2022/08/14 02:20:14;;;;;;;19.20;12.85;;;;;;;;;;4960860;28;20114;-77
2022/08/14 02:22:40;;;;;;;21.42;14.05;;;;;;;;;;4958727;28;20520;-76
2022/08/14 02:25:06;;;;;;;20.25;13.73;;;;;;;;;;4962855;28;20022;-76
2022/08/14 02:27:31;;;;;;;18.88;12.40;;;;;;;;;;4964202;28;20395;-76
2022/08/14 02:29:57;;;;;;;19.77;12.85;;;;;;;;;;4960419;28;20478;-76
2022/08/14 02:32:22;;;;;;;18.45;13.45;;;;;;;;;;4960662;28;20031;-76
2022/08/14 02:34:48;;;;;;;20.98;13.25;;;;;;;;;;4975108;28;20583;-75
2022/08/14 02:37:14;;;;;;;23.00;13.63;;;;;;;;;;4960421;28;20034;-76
2022/08/14 02:39:45;;;;;;;21.77;14.27;;;;;;;;;;4960312;28;20019;-76
2022/08/14 02:42:14;;;;;;;22.80;14.15;;;;;;;;;;4962282;28;20065;-75
2022/08/14 02:44:44;;;;;;;22.13;13.30;;;;;;;;;;4974338;28;20063;-76
2022/08/14 02:47:10;;;;;;;19.33;12.52;;;;;;;;;;4962635;28;20030;-76
2022/08/14 02:49:36;;;;;;;21.85;13.00;;;;;;;;;;4973332;28;20042;-76
2022/08/14 02:52:06;;;;;;;20.75;13.30;;;;;;;;;;4956330;28;20042;-77
2022/08/14 02:54:33;;;;;;;17.65;13.52;;;;;;;;;;4961574;28;20037;-76
2022/08/14 02:57:04;;;;;;;18.70;12.88;;;;;;;;;;4961090;28;20027;-76
2022/08/14 02:59:31;;;;;;;17.77;12.77;;;;;;;;;;4964979;28;20113;-76
2022/08/14 03:01:57;;;;;;;21.73;14.30;;;;;;;;;;4970893;28;20031;-76
2022/08/14 03:04:25;;;;;;;19.90;13.88;;;;;;;;;;4964631;28;20466;-76
2022/08/14 03:06:50;;;;;;;19.15;13.25;;;;;;;;;;4975846;28;20062;-76
2022/08/14 03:09:16;;;;;;;23.15;14.40;;;;;;;;;;4968159;28;20391;-76
2022/08/14 03:11:43;;;;;;;22.25;13.13;;;;;;;;;;4977781;28;20491;-76
2022/08/14 03:14:10;;;;;;;20.67;13.05;;;;;;;;;;4972349;28;20078;-76
2022/08/14 03:16:35;;;;;;;24.42;14.35;;;;;;;;;;4980815;28;20392;-76
2022/08/14 03:19:02;;;;;;;21.05;12.93;;;;;;;;;;4967462;28;20022;-76
2022/08/14 03:21:30;;;;;;;18.35;12.57;;;;;;;;;;4956176;28;20039;-76
2022/08/14 03:26:33;;;;;;;19.38;13.57;;;;;;;;;;4952083;28;20094;-76
2022/08/14 03:29:00;;;;;;;23.30;13.93;;;;;;;;;;4961573;28;20030;-76
2022/08/14 03:31:25;;;;;;;23.45;13.35;;;;;;;;;;4958816;28;20149;-76
2022/08/14 03:33:51;;;;;;;21.58;14.48;;;;;;;;;;4968236;28;20117;-76
2022/08/14 03:36:19;;;;;;;22.60;14.75;;;;;;;;;;4973340;28;20049;-76
2022/08/14 03:38:47;;;;;;;18.95;13.63;;;;;;;;;;4958173;28;20047;-76
2022/08/14 03:41:25;;;;;;;19.77;13.55;;;;;;;;;;4965938;28;20048;-77
2022/08/14 03:43:54;;;;;;;23.63;13.73;;;;;;;;;;4956496;28;20031;-76
2022/08/14 03:46:22;;;;;;;20.77;14.52;;;;;;;;;;4963317;28;20059;-76
2022/08/14 03:48:47;;;;;;;19.55;12.98;;;;;;;;;;4959021;28;20027;-76
2022/08/14 03:51:13;;;;;;;22.38;14.32;;;;;;;;;;4975120;28;20446;-76
2022/08/14 03:53:41;;;;;;;23.30;14.57;;;;;;;;;;4977334;28;20487;-76
2022/08/14 03:56:13;;;;;;;22.40;15.25;;;;;;;;;;4964984;28;20035;-76
2022/08/14 03:58:47;;;;;;;19.23;14.70;;;;;;;;;;4979217;28;20117;-76
2022/08/14 04:01:15;;;;;;;25.75;16.48;;;;;;;;;;4957072;28;20039;-76
2022/08/14 04:03:40;;;;;;;20.42;14.50;;;;;;;;;;4976794;28;20061;-76
2022/08/14 04:06:10;;;;;;;24.48;15.98;;;;;;;;;;4977674;28;20411;-76
2022/08/14 04:08:39;;;;;;;22.17;15.57;;;;;;;;;;4956084;28;20390;-76
2022/08/14 04:11:06;;;;;;;23.05;14.90;;;;;;;;;;4961132;28;20038;-76
2022/08/14 04:13:34;;;;;;;23.63;15.88;;;;;;;;;;4955073;28;20078;-77
2022/08/14 04:16:03;;;;;;;24.00;16.23;;;;;;;;;;4961426;28;20035;-76
2022/08/14 04:18:29;;;;;;;22.42;16.65;;;;;;;;;;4966811;28;20049;-76
2022/08/14 04:20:56;;;;;;;20.88;15.95;;;;;;;;;;4967634;28;20447;-76
2022/08/14 04:23:23;;;;;;;27.35;16.42;;;;;;;;;;4964843;28;20027;-76
2022/08/14 04:25:52;;;;;;;24.08;15.77;;;;;;;;;;4957587;28;20033;-76
2022/08/14 04:28:18;;;;;;;27.25;17.90;;;;;;;;;;4968072;28;20027;-76
2022/08/14 04:30:44;;;;;;;28.60;16.50;;;;;;;;;;4956892;28;20035;-76
2022/08/14 04:33:10;;;;;;;23.30;15.52;;;;;;;;;;4982184;28;20034;-76
2022/08/14 04:35:36;;;;;;;21.13;15.57;;;;;;;;;;4965690;28;20444;-77
2022/08/14 04:43:37;;;;;;;25.92;16.60;;;;;;;;;;4966053;28;20093;-76
2022/08/14 04:46:14;;;;;;;22.27;15.88;;;;;;;;;;4975249;28;20028;-76
2022/08/14 04:48:40;;;;;;;24.05;16.52;;;;;;;;;;4953710;28;20338;-77
2022/08/14 04:51:08;;;;;;;22.42;16.42;;;;;;;;;;4976838;28;20388;-76
2022/08/14 04:53:36;;;;;;;24.77;16.33;;;;;;;;;;4971421;28;20162;-76
2022/08/14 04:56:04;;;;;;;27.80;15.45;;;;;;;;;;4966433;28;20034;-76
2022/08/14 04:58:31;;;;;;;22.80;15.38;;;;;;;;;;4959427;28;20411;-76
2022/08/14 05:00:58;;;;;;;25.67;16.10;;;;;;;;;;4971370;28;20041;-78
2022/08/14 05:03:32;;;;;;;22.38;16.20;;;;;;;;;;4974055;28;20058;-76
2022/08/14 05:06:02;;;;;;;22.85;17.23;;;;;;;;;;4966619;28;20050;-76
2022/08/14 05:08:30;;;;;;;25.48;16.58;;;;;;;;;;4963236;28;20503;-77
2022/08/14 05:10:58;;;;;;;35.05;18.88;;;;;;;;;;4962222;28;20480;-76
2022/08/14 05:13:26;;;;;;;22.67;16.67;;;;;;;;;;4975312;28;20066;-77
2022/08/14 05:15:53;;;;;;;27.60;17.33;;;;;;;;;;4983869;28;20097;-77
2022/08/14 05:18:22;;;;;;;26.08;17.30;;;;;;;;;;4958783;28;20043;-77
2022/08/14 05:20:53;;;;;;;23.17;15.80;;;;;;;;;;4975887;28;20122;-77
2022/08/14 05:23:21;;;;;;;21.15;16.35;;;;;;;;;;4976607;28;20126;-77
2022/08/14 05:25:50;;;;;;;23.38;17.17;;;;;;;;;;4969258;28;20035;-77
2022/08/14 05:28:21;;;;;;;29.05;17.88;;;;;;;;;;4963244;28;20118;-77
2022/08/14 05:30:52;;;;;;;23.77;17.08;;;;;;;;;;4980630;28;20035;-76
2022/08/14 05:33:21;;;;;;;25.70;16.88;;;;;;;;;;4959078;28;20096;-77
2022/08/14 05:35:47;;;;;;;24.73;17.27;;;;;;;;;;4958944;28;20103;-76
2022/08/14 05:38:17;;;;;;;27.67;19.27;;;;;;;;;;4959015;28;20034;-76
2022/08/14 05:40:43;;;;;;;26.42;18.55;;;;;;;;;;4969181;28;20033;-76
2022/08/14 05:43:09;;;;;;;26.75;17.58;;;;;;;;;;4978836;28;20030;-76
2022/08/14 05:45:36;;;;;;;25.23;18.17;;;;;;;;;;4959323;28;20391;-76
2022/08/14 05:48:02;;;;;;;24.42;17.60;;;;;;;;;;4978793;28;20039;-77
2022/08/14 05:50:27;;;;;;;30.55;18.05;;;;;;;;;;4958150;28;20034;-77
2022/08/14 05:52:53;;;;;;;26.00;17.33;;;;;;;;;;4978908;28;20402;-75
2022/08/14 05:55:20;;;;;;;25.90;18.27;;;;;;;;;;4974403;28;20031;-77
2022/08/14 05:57:53;;;;;;;25.85;17.95;;;;;;;;;;4964338;28;20085;-77
2022/08/14 06:00:22;;;;;;;34.00;18.23;;;;;;;;;;4959197;28;20070;-78
2022/08/14 06:02:48;;;;;;;25.02;17.40;;;;;;;;;;4977542;28;20432;-77
2022/08/14 06:05:14;;;;;;;25.58;17.92;;;;;;;;;;4959317;28;20379;-77
2022/08/14 06:07:39;;;;;;;26.25;18.50;;;;;;;;;;4977485;28;20030;-77
2022/08/14 06:10:07;;;;;;;23.90;16.77;;;;;;;;;;4958953;28;20400;-78
2022/08/14 06:12:33;;;;;;;24.83;17.33;;;;;;;;;;4976687;28;20097;-77
2022/08/14 06:14:59;;;;;;;19.88;14.85;;;;;;;;;;4960700;28;20039;-77
2022/08/14 06:17:25;;;;;;;21.63;14.43;;;;;;;;;;4963250;28;20027;-78
2022/08/14 06:19:51;;;;;;;20.77;14.45;;;;;;;;;;4977066;28;20039;-77
2022/08/14 06:22:16;;;;;;;21.10;15.05;;;;;;;;;;4958066;28;20498;-77
2022/08/14 06:24:42;;;;;;;18.35;14.40;;;;;;;;;;4947117;28;20134;-77
2022/08/14 06:27:07;;;;;;;23.73;15.55;;;;;;;;;;4960094;28;20518;-77
2022/08/14 06:29:33;;;;;;;24.15;16.35;;;;;;;;;;4973603;28;20037;-77
2022/08/14 06:31:59;;;;;;;21.70;15.52;;;;;;;;;;4971167;28;20026;-77
2022/08/14 06:34:25;;;;;;;25.25;15.52;;;;;;;;;;4967696;28;20027;-76
2022/08/14 06:36:50;;;;;;;23.42;15.05;;;;;;;;;;4957881;28;20035;-77
2022/08/14 06:39:16;;;;;;;24.75;14.88;;;;;;;;;;4969323;28;20122;-77
2022/08/14 06:41:41;;;;;;;23.00;14.88;;;;;;;;;;4969396;28;20038;-76
2022/08/14 06:44:10;;;;;;;23.67;14.20;;;;;;;;;;4956453;28;20372;-77
2022/08/14 06:46:35;;;;;;;20.77;15.23;;;;;;;;;;4957511;28;20031;-77
2022/08/14 06:49:01;;;;;;;22.73;14.00;;;;;;;;;;4967951;28;20045;-77
2022/08/14 06:51:27;;;;;;;25.25;15.25;;;;;;;;;;4959047;28;20106;-76
2022/08/14 06:53:53;;;;;;;24.90;16.20;;;;;;;;;;4962297;28;20137;-77
2022/08/14 06:56:19;;;;;;;20.15;14.82;;;;;;;;;;4953256;28;20466;-77
2022/08/14 06:58:45;;;;;;;19.17;15.25;;;;;;;;;;4969193;28;20027;-77
2022/08/14 07:06:39;;;;;;;23.75;16.63;;;;;;;;;;4963242;28;20553;-76
2022/08/14 07:09:06;;;;;;;23.20;15.90;;;;;;;;;;4978696;28;20031;-77
2022/08/14 07:11:32;;;;;;;23.75;16.05;;;;;;;;;;4966331;28;20023;-78
2022/08/14 07:13:57;;;;;;;24.92;15.63;;;;;;;;;;4978536;28;20169;-77
2022/08/14 07:16:23;;;;;;;24.02;15.20;;;;;;;;;;4972107;28;20030;-77
2022/08/14 07:18:48;;;;;;;21.83;14.52;;;;;;;;;;4960974;28;20042;-77
2022/08/14 07:21:14;;;;;;;21.38;16.10;;;;;;;;;;4962144;28;20035;-77
2022/08/14 07:23:40;;;;;;;23.15;16.48;;;;;;;;;;4968280;28;20041;-77
2022/08/14 07:26:06;;;;;;;22.40;15.90;;;;;;;;;;4968872;28;20117;-78
2022/08/14 07:28:38;;;;;;;23.95;16.23;;;;;;;;;;4971176;28;20097;-77
2022/08/14 07:31:08;;;;;;;24.13;16.05;;;;;;;;;;4972093;28;20555;-77
2022/08/14 07:33:43;;;;;;;24.58;17.58;;;;;;;;;;4961192;28;20082;-77
2022/08/14 07:36:11;;;;;;;21.98;15.85;;;;;;;;;;4982019;28;20090;-76
2022/08/14 07:38:39;;;;;;;22.05;14.85;;;;;;;;;;4973749;28;20502;-77
2022/08/14 07:41:07;;;;;;;23.73;16.25;;;;;;;;;;4957947;28;20027;-77
2022/08/14 07:43:34;;;;;;;22.20;16.60;;;;;;;;;;4966617;28;20433;-77
2022/08/14 07:45:59;;;;;;;21.83;16.60;;;;;;;;;;4958071;28;20031;-78
2022/08/14 07:48:25;;;;;;;19.67;15.20;;;;;;;;;;4961652;28;20074;-78
2022/08/14 07:50:51;;;;;;;20.83;16.40;;;;;;;;;;4951556;28;20034;-76
2022/08/14 07:53:19;;;;;;;22.80;15.45;;;;;;;;;;4977782;28;20130;-77
2022/08/14 07:55:46;;;;;;;23.20;15.98;;;;;;;;;;4976181;28;20023;-77
2022/08/14 07:58:13;;;;;;;23.02;15.90;;;;;;;;;;4977419;28;20027;-77
2022/08/14 08:00:39;;;;;;;21.95;15.65;;;;;;;;;;4972851;28;20026;-77
2022/08/14 08:03:09;;;;;;;25.75;16.45;;;;;;;;;;4968583;28;20039;-77
2022/08/14 08:05:39;;;;;;;25.77;17.60;;;;;;;;;;4972468;28;20039;-78
2022/08/14 08:08:06;;;;;;;20.35;15.45;;;;;;;;;;4960352;28;20311;-78
2022/08/14 08:10:33;;;;;;;25.92;17.20;;;;;;;;;;4958455;28;20031;-76
2022/08/14 08:13:09;;;;;;;23.65;15.90;;;;;;;;;;4965322;28;20035;-76
2022/08/14 08:15:45;;;;;;;25.45;16.90;;;;;;;;;;4956476;28;20055;-77
2022/08/14 08:18:13;;;;;;;18.45;15.18;;;;;;;;;;4982034;28;20415;-76
2022/08/14 08:20:47;;;;;;;26.15;17.65;;;;;;;;;;4967788;28;20022;-76
2022/08/14 08:23:15;;;;;;;22.52;17.38;;;;;;;;;;4971362;28;20110;-77
2022/08/14 08:25:44;;;;;;;27.83;18.48;;;;;;;;;;4977112;28;20051;-77
2022/08/14 08:28:13;;;;;;;22.75;18.30;;;;;;;;;;4967372;28;20061;-76
2022/08/14 08:30:53;;;;;;;25.40;17.40;;;;;;;;;;4956916;28;20027;-76
2022/08/14 08:33:20;;;;;;;21.80;16.80;;;;;;;;;;4967867;28;20259;-77
2022/08/14 08:35:47;;;;;;;25.52;17.38;;;;;;;;;;4957269;28;20879;-76
2022/08/14 08:38:16;;;;;;;26.25;16.10;;;;;;;;;;4958644;28;20038;-77
2022/08/14 08:40:43;;;;;;;27.98;18.30;;;;;;;;;;4977239;28;20042;-77
2022/08/14 08:43:15;;;;;;;30.17;17.98;;;;;;;;;;4959607;28;20669;-78
2022/08/14 08:45:40;;;;;;;;;;;;;;;;;;4958880;28;20030;-77
2022/08/14 08:48:06;;;;;;;25.75;17.17;;;;;;;;;;4983513;28;19936;-77
2022/08/14 08:50:36;;;;;;;24.77;17.50;;;;;;;;;;4962295;28;20030;-77
2022/08/14 08:53:04;;;;;;;22.20;16.85;;;;;;;;;;4958906;28;20027;-78
2022/08/14 08:55:37;;;;;;;23.23;17.00;;;;;;;;;;4961016;28;20037;-76
2022/08/14 08:58:11;;;;;;;23.02;16.42;;;;;;;;;;4958345;28;20110;-77
2022/08/14 09:00:39;;;;;;;20.40;16.30;;;;;;;;;;4962375;28;20031;-76
2022/08/14 09:03:08;;;;;;;22.38;16.10;;;;;;;;;;4983720;28;20042;-77
2022/08/14 09:05:36;;;;;;;45.22;30.63;;;;;;;;;;4967126;28;20162;-76
2022/08/14 09:08:32;;;;;;;25.08;16.92;;;;;;;;;;4974126;28;20103;-77
2022/08/14 09:11:00;;;;;;;26.73;16.23;;;;;;;;;;4964127;28;20440;-77
2022/08/14 09:13:25;;;;;;;26.88;16.25;;;;;;;;;;4974937;28;20015;-77
2022/08/14 09:15:53;;;;;;;22.77;15.73;;;;;;;;;;4960964;28;20093;-78
2022/08/14 09:18:23;;;;;;;21.90;14.65;;;;;;;;;;4959839;28;20616;-77
2022/08/14 09:20:54;;;;;;;20.27;15.68;;;;;;;;;;4969730;28;20468;-77
2022/08/14 09:23:20;;;;;;;23.58;16.60;;;;;;;;;;4961420;28;20453;-78
2022/08/14 09:25:49;;;;;;;24.25;16.30;;;;;;;;;;4963650;28;20117;-77
2022/08/14 09:28:17;;;;;;;21.60;16.20;;;;;;;;;;4970158;28;20031;-78
2022/08/14 09:30:53;;;;;;;23.50;15.95;;;;;;;;;;4980080;28;20093;-77
2022/08/14 09:33:38;;;;;;;20.10;14.90;;;;;;;;;;4958679;28;20117;-78
2022/08/14 09:36:19;;;;;;;21.42;14.07;;;;;;;;;;4976209;28;20087;-77
2022/08/14 09:38:59;;;;;;;;;;;;;;;;;;4965618;28;20483;-77
2022/08/14 09:41:43;;;;;;;20.10;15.13;;;;;;;;;;4953589;28;19919;-77
2022/08/14 09:44:28;;;;;;;18.77;13.57;;;;;;;;;;4960396;28;20139;-78
2022/08/14 09:46:55;;;;;;;23.80;15.15;;;;;;;;;;4963640;28;20069;-77
2022/08/14 09:49:36;;;;;;;17.52;13.75;;;;;;;;;;4969960;28;20026;-77
2022/08/14 09:52:11;;;;;;;16.00;12.05;;;;;;;;;;4958909;28;20041;-77
2022/08/14 09:54:47;;;;;;;19.30;12.30;;;;;;;;;;4959381;28;20394;-78
2022/08/14 09:57:29;;;;;;;15.88;11.35;;;;;;;;;;4959182;28;20393;-76
2022/08/14 09:59:55;;;;;;;14.32;11.07;;;;;;;;;;4958503;28;20027;-76
2022/08/14 10:02:22;;;;;;;14.48;11.43;;;;;;;;;;4979607;28;20058;-76
2022/08/14 10:05:08;;;;;;;23.55;12.40;;;;;;;;;;4964491;28;20109;-77
2022/08/14 10:07:37;;;;;;;20.30;13.70;;;;;;;;;;4960530;28;20399;-78
2022/08/14 10:10:04;;;;;;;18.35;12.35;;;;;;;;;;4961746;28;20074;-77
2022/08/14 10:12:43;;;;;;;19.92;12.65;;;;;;;;;;4959643;28;20023;-76
2022/08/14 10:15:18;;;;;;;17.88;13.07;;;;;;;;;;4969796;28;20503;-76
2022/08/14 10:17:45;;;;;;;21.25;12.07;;;;;;;;;;4968702;28;20063;-76
2022/08/14 10:20:12;;;;;;;14.88;11.68;;;;;;;;;;4973406;28;20098;-76
2022/08/14 10:22:38;;;;;;;18.25;12.77;;;;;;;;;;4968570;28;20088;-76
2022/08/14 10:25:13;;;;;;;15.57;12.52;;;;;;;;;;4963458;28;20057;-76
2022/08/14 10:27:39;;;;;;;24.77;14.20;;;;;;;;;;4962751;28;20055;-76
2022/08/14 10:30:13;;;;;;;17.40;12.52;;;;;;;;;;4951694;28;20046;-77
2022/08/14 10:32:47;;;;;;;18.55;13.05;;;;;;;;;;4975104;28;20027;-75
2022/08/14 10:35:13;;;;;;;14.25;11.65;;;;;;;;;;4982954;28;20181;-75
2022/08/14 10:37:41;;;;;;;15.77;10.80;;;;;;;;;;4958442;28;20020;-77
2022/08/14 10:40:08;;;;;;;13.07;10.70;;;;;;;;;;4966485;28;20487;-76
2022/08/14 10:42:39;;;;;;;18.20;11.25;;;;;;;;;;4960267;28;20118;-76
2022/08/14 10:45:22;;;;;;;13.20;11.13;;;;;;;;;;4969180;28;20109;-76
2022/08/14 10:47:49;;;;;;;15.38;11.88;;;;;;;;;;4957841;28;20067;-76
2022/08/14 10:50:15;;;;;;;15.30;11.10;;;;;;;;;;4961839;28;20027;-75
2022/08/14 10:52:41;;;;;;;15.15;11.13;;;;;;;;;;4972370;28;20033;-76
2022/08/14 10:55:18;;;;;;;14.52;10.50;;;;;;;;;;4963487;28;20356;-75
2022/08/14 10:57:56;;;;;;;13.05;9.23;;;;;;;;;;4958736;28;20031;-76
2022/08/14 11:00:27;;;;;;;13.35;10.07;;;;;;;;;;4955918;28;20505;-76
2022/08/14 11:03:08;;;;;;;12.77;9.55;;;;;;;;;;4971431;28;20121;-76
2022/08/14 11:05:42;;;;;;;12.07;8.93;;;;;;;;;;4957642;28;20027;-76
2022/08/14 11:08:08;;;;;;;13.75;11.65;;;;;;;;;;4961496;28;20494;-76
2022/08/14 11:10:47;;;;;;;12.88;8.73;;;;;;;;;;4972500;28;20031;-76
2022/08/14 11:13:26;;;;;;;11.25;8.57;;;;;;;;;;4968834;28;20374;-75
2022/08/14 11:15:54;;;;;;;9.82;8.55;;;;;;;;;;4975039;28;20548;-76
2022/08/14 11:18:21;;;;;;;8.85;7.95;;;;;;;;;;4972050;28;20142;-75
2022/08/14 11:20:53;;;;;;;16.27;9.45;;;;;;;;;;4976135;28;20184;-75
2022/08/14 11:23:21;;;;;;;13.93;9.15;;;;;;;;;;4979247;28;20041;-77
2022/08/14 11:25:48;;;;;;;11.63;8.68;;;;;;;;;;4965041;28;20070;-76
2022/08/14 11:28:14;;;;;;;11.40;9.23;;;;;;;;;;4965375;28;20026;-76
2022/08/14 11:30:43;;;;;;;12.43;8.60;;;;;;;;;;4960246;28;20039;-76
2022/08/14 11:33:10;;;;;;;11.55;9.13;;;;;;;;;;4972741;28;20070;-77
2022/08/14 11:35:38;;;;;;;13.32;10.13;;;;;;;;;;4956906;28;20069;-74
2022/08/14 11:38:06;;;;;;;17.67;9.48;;;;;;;;;;4974409;28;20670;-77
2022/08/14 11:40:37;;;;;;;11.73;9.15;;;;;;;;;;4960712;28;20546;-76
2022/08/14 11:43:05;;;;;;;13.60;9.35;;;;;;;;;;4956063;28;20035;-76
2022/08/14 11:45:34;;;;;;;14.43;8.88;;;;;;;;;;4954949;28;20082;-76
2022/08/14 11:48:12;;;;;;;11.73;8.85;;;;;;;;;;4960633;28;20051;-76
2022/08/14 11:50:38;;;;;;;11.65;9.88;;;;;;;;;;4962551;28;20057;-76
2022/08/14 11:53:06;;;;;;;13.93;8.80;;;;;;;;;;4973227;28;20579;-75
2022/08/14 11:55:37;;;;;;;11.20;9.15;;;;;;;;;;4966792;28;20023;-76
2022/08/14 11:58:09;;;;;;;11.50;8.93;;;;;;;;;;4960868;28;20105;-76
2022/08/14 12:00:48;;;;;;;14.18;10.05;;;;;;;;;;4962014;28;20491;-76
2022/08/14 12:03:14;;;;;;;10.90;8.60;;;;;;;;;;4983583;28;20057;-77
2022/08/14 12:05:41;;;;;;;19.77;12.77;;;;;;;;;;4957998;28;20035;-76
2022/08/14 12:08:08;;;;;;;12.68;9.00;;;;;;;;;;4971736;28;20062;-76
2022/08/14 12:10:35;;;;;;;14.18;8.90;;;;;;;;;;4972485;28;20027;-75
2022/08/14 12:13:17;;;;;;;12.55;8.88;;;;;;;;;;4972210;28;20030;-76
2022/08/14 12:15:48;;;;;;;10.48;7.80;;;;;;;;;;4956234;28;20062;-77
2022/08/14 12:18:15;;;;;;;9.38;8.32;;;;;;;;;;4953671;28;20520;-77
2022/08/14 12:20:42;;;;;;;9.98;8.02;;;;;;;;;;4966317;28;20038;-77
2022/08/14 12:23:21;;;;;;;13.27;8.82;;;;;;;;;;4954220;28;20027;-76
2022/08/14 12:25:47;;;;;;;9.50;8.60;;;;;;;;;;4971294;28;20129;-77
2022/08/14 12:28:14;;;;;;;15.07;8.57;;;;;;;;;;4948272;28;20476;-76
2022/08/14 12:30:44;;;;;;;12.02;8.95;;;;;;;;;;4958764;28;20026;-76
2022/08/14 12:33:24;;;;;;;10.07;7.72;;;;;;;;;;4974397;28;20510;-76
2022/08/14 12:35:51;;;;;;;17.80;8.18;;;;;;;;;;4954156;28;20047;-76
2022/08/14 12:38:17;;;;;;;10.43;7.80;;;;;;;;;;4972391;28;20030;-76
2022/08/14 12:40:51;;;;;;;10.88;8.35;;;;;;;;;;4975594;28;20113;-76
2022/08/14 12:43:19;;;;;;;9.48;8.57;;;;;;;;;;4961810;28;20042;-76
2022/08/14 12:45:50;;;;;;;10.30;8.50;;;;;;;;;;4962146;28;20019;-75
2022/08/14 12:48:21;;;;;;;12.82;8.25;;;;;;;;;;4960600;28;20082;-77
2022/08/14 12:50:50;;;;;;;11.23;7.97;;;;;;;;;;4978018;28;20110;-77
2022/08/14 12:53:17;;;;;;;11.37;8.87;;;;;;;;;;4968835;28;20422;-75
2022/08/14 12:55:44;;;;;;;13.73;8.77;;;;;;;;;;4977370;28;20117;-75
2022/08/14 12:58:11;;;;;;;10.85;8.48;;;;;;;;;;4976055;28;20134;-76
2022/08/14 13:00:49;;;;;;;12.70;8.40;;;;;;;;;;4963095;28;20085;-76
2022/08/14 13:03:26;;;;;;;14.48;9.45;;;;;;;;;;4976393;28;20399;-76
2022/08/14 13:05:52;;;;;;;10.13;8.75;;;;;;;;;;4960573;28;20216;-76
2022/08/14 13:08:17;;;;;;;16.73;10.57;;;;;;;;;;4974480;28;20043;-76
2022/08/14 13:10:45;;;;;;;17.00;9.60;;;;;;;;;;4965025;28;20475;-76
2022/08/14 13:13:15;;;;;;;10.38;8.98;;;;;;;;;;4961580;28;20027;-77
2022/08/14 13:15:46;;;;;;;10.57;8.25;;;;;;;;;;4968388;28;20145;-76
2022/08/14 13:18:15;;;;;;;11.85;9.60;;;;;;;;;;4978348;28;20356;-75
2022/08/14 13:20:42;;;;;;;11.88;8.77;;;;;;;;;;4986168;28;20292;-75
2022/08/14 13:23:09;;;;;;;11.80;9.05;;;;;;;;;;4979097;28;20465;-76
2022/08/14 13:25:39;;;;;;;13.77;9.07;;;;;;;;;;4959728;28;20039;-76
2022/08/14 13:28:06;;;;;;;10.32;8.85;;;;;;;;;;4963516;28;20129;-76
2022/08/14 13:30:31;;;;;;;10.32;8.73;;;;;;;;;;4959079;28;20061;-76
2022/08/14 13:32:57;;;;;;;14.65;9.32;;;;;;;;;;4963613;28;20070;-76
2022/08/14 13:35:23;;;;;;;12.35;8.73;;;;;;;;;;4959616;28;20030;-76
2022/08/14 13:37:50;;;;;;;13.13;9.68;;;;;;;;;;4963139;28;20398;-76
2022/08/14 13:40:21;;;;;;;14.98;9.15;;;;;;;;;;4954437;28;20030;-77
2022/08/14 13:42:49;;;;;;;9.77;8.45;;;;;;;;;;4952235;28;20126;-76
2022/08/14 13:45:16;;;;;;;13.45;7.63;;;;;;;;;;4964920;28;20030;-75
2022/08/14 13:47:42;;;;;;;12.63;9.32;;;;;;;;;;4966910;28;20070;-76
2022/08/14 13:50:10;;;;;;;14.38;9.18;;;;;;;;;;4963522;28;20137;-76
2022/08/14 13:52:43;;;;;;;11.15;8.48;;;;;;;;;;4979817;28;20061;-77
2022/08/14 13:55:09;;;;;;;10.90;8.27;;;;;;;;;;4968748;28;20125;-75
2022/08/14 13:57:39;;;;;;;10.65;7.65;;;;;;;;;;4973886;28;20031;-76
2022/08/14 14:00:11;;;;;;;13.95;8.10;;;;;;;;;;4975105;28;20038;-76
2022/08/14 14:02:38;;;;;;;9.68;7.95;;;;;;;;;;4970506;28;20421;-76
2022/08/14 14:05:05;;;;;;;10.75;6.82;;;;;;;;;;4960312;28;20554;-76
2022/08/14 14:07:33;;;;;;;8.35;7.32;;;;;;;;;;4960133;28;20130;-76
2022/08/14 14:10:05;;;;;;;11.55;8.15;;;;;;;;;;4960498;28;20125;-76
2022/08/14 14:12:36;;;;;;;19.80;14.27;;;;;;;;;;4961653;28;20094;-77
2022/08/14 14:15:07;;;;;;;11.32;7.88;;;;;;;;;;4964692;28;20031;-77
2022/08/14 14:17:35;;;;;;;7.55;6.75;;;;;;;;;;4957757;28;20065;-77
2022/08/14 14:20:01;;;;;;;11.23;7.05;;;;;;;;;;4954902;28;20078;-76
2022/08/14 14:22:27;;;;;;;10.82;6.70;;;;;;;;;;4959733;28;20042;-76
2022/08/14 14:24:53;;;;;;;7.80;6.50;;;;;;;;;;4961604;28;20272;-77
2022/08/14 14:27:19;;;;;;;7.20;6.50;;;;;;;;;;4977085;28;20027;-76
2022/08/14 14:29:47;;;;;;;9.43;6.80;;;;;;;;;;4981888;28;20031;-76
2022/08/14 14:32:15;;;;;;;10.82;6.90;;;;;;;;;;4967790;28;20157;-76
2022/08/14 14:34:41;;;;;;;10.85;6.80;;;;;;;;;;4977355;28;20027;-77
2022/08/14 14:37:12;;;;;;;7.10;6.40;;;;;;;;;;4957532;28;20071;-77
2022/08/14 14:39:38;;;;;;;9.60;6.55;;;;;;;;;;4961651;28;20089;-77
2022/08/14 14:42:07;;;;;;;7.82;6.82;;;;;;;;;;4965840;28;20073;-77
2022/08/14 14:44:41;;;;;;;8.02;6.03;;;;;;;;;;4978360;28;20387;-77
2022/08/14 14:47:15;;;;;;;7.57;6.22;;;;;;;;;;4970144;28;20031;-75